createdAt,value
2018-09-10T00:00:29.582Z,100777.34
2018-09-10T00:02:56.515Z,100776.13
2018-09-10T00:05:24.387Z,100787.70
2018-09-10T00:07:52.151Z,100779.35
2018-09-10T00:10:19.024Z,100773.77
2018-09-10T00:12:45.978Z,100776.92
2018-09-10T00:15:13.227Z,100782.98
2018-09-10T00:17:40.191Z,100785.81
2018-09-10T00:20:07.167Z,100788.72
2018-09-10T00:22:34.107Z,100787.91
2018-09-10T00:25:01.043Z,100790.77
2018-09-10T00:27:28.056Z,100785.78
2018-09-10T00:29:55.907Z,100780.41
2018-09-10T00:32:23.051Z,100786.64
2018-09-10T00:34:52.999Z,100781.98
2018-09-10T00:37:19.950Z,100782.15
2018-09-10T00:39:46.911Z,100782.13
2018-09-10T00:42:13.876Z,100780.05
2018-09-10T00:44:40.827Z,100779.35
2018-09-10T00:47:07.788Z,100783.98
2018-09-10T00:49:34.751Z,100789.39
2018-09-10T00:52:01.624Z,100783.92
2018-09-10T00:54:28.559Z,100788.13
2018-09-10T00:56:55.511Z,100787.16
2018-09-10T00:59:23.391Z,100788.06
2018-09-10T01:01:50.364Z,100789.85
2018-09-10T01:04:17.313Z,100787.28
2018-09-10T01:06:44.255Z,100792.72
2018-09-10T01:09:11.226Z,100800.42
2018-09-10T01:11:38.678Z,100803.46
2018-09-10T01:14:05.664Z,100802.36
2018-09-10T01:16:32.584Z,100797.41
2018-09-10T01:18:59.574Z,100799.87
2018-09-10T01:21:26.503Z,100791.91
2018-09-10T01:23:53.519Z,100791.41
2018-09-10T01:26:20.467Z,100788.69
2018-09-10T01:28:47.392Z,100794.62
2018-09-10T01:31:14.367Z,100791.85
2018-09-10T01:33:46.972Z,100786.96
2018-09-10T01:36:13.898Z,100788.05
2018-09-10T01:38:41.039Z,100783.50
2018-09-10T01:41:08.015Z,100790.55
2018-09-10T01:43:34.992Z,100792.58
2018-09-10T01:46:02.123Z,100792.88
2018-09-10T01:48:29.922Z,100787.53
2018-09-10T01:50:56.940Z,100793.74
2018-09-10T01:53:23.821Z,100797.91
2018-09-10T01:55:50.686Z,100799.60
2018-09-10T01:58:17.643Z,100809.19
2018-09-10T02:00:44.599Z,100805.22
2018-09-10T02:03:11.559Z,100809.50
2018-09-10T02:05:38.480Z,100805.27
2018-09-10T02:08:05.463Z,100803.09
2018-09-10T02:10:32.422Z,100802.36
2018-09-10T02:12:59.387Z,100797.23
2018-09-10T02:15:27.364Z,100793.55
2018-09-10T02:17:54.334Z,100789.06
2018-09-10T02:20:21.328Z,100791.53
2018-09-10T02:22:48.239Z,100784.23
2018-09-10T02:25:15.193Z,100790.56
2018-09-10T02:27:42.193Z,100791.57
2018-09-10T02:30:09.943Z,100786.80
2018-09-10T02:32:36.884Z,100799.21
2018-09-10T02:35:03.767Z,100791.88
2018-09-10T02:37:30.809Z,100797.88
2018-09-10T02:39:57.730Z,100797.14
2018-09-10T02:42:24.716Z,100787.64
2018-09-10T02:44:51.679Z,100784.14
2018-09-10T02:47:18.635Z,100789.84
2018-09-10T02:49:45.563Z,100785.19
2018-09-10T02:52:12.548Z,100786.94
2018-09-10T02:54:39.534Z,100790.27
2018-09-10T02:57:06.507Z,100793.76
2018-09-10T02:59:33.450Z,100798.59
2018-09-10T03:02:00.416Z,100802.13
2018-09-10T03:04:27.352Z,100794.92
2018-09-10T03:06:54.323Z,100793.95
2018-09-10T03:09:21.272Z,100796.39
2018-09-10T03:11:48.227Z,100799.31
2018-09-10T03:14:15.177Z,100809.75
2018-09-10T03:16:43.135Z,100807.58
2018-09-10T03:19:10.127Z,100813.42
2018-09-10T03:21:37.063Z,100814.29
2018-09-10T03:24:04.042Z,100808.27
2018-09-10T03:26:31.066Z,100809.09
2018-09-10T03:28:58.068Z,100807.50
2018-09-10T03:31:25.083Z,100805.71
2018-09-10T03:33:51.980Z,100817.58
2018-09-10T03:36:18.864Z,100819.13
2018-09-10T03:38:45.858Z,100806.87
2018-09-10T03:41:12.839Z,100804.12
2018-09-10T03:43:39.759Z,100795.98
2018-09-10T03:46:06.803Z,100800.09
2018-09-10T03:48:33.759Z,100796.64
2018-09-10T03:51:00.670Z,100795.23
2018-09-10T03:53:27.593Z,100793.11
2018-09-10T03:55:54.584Z,100792.33
2018-09-10T03:58:21.535Z,100796.92
2018-09-10T04:00:48.617Z,100801.46
2018-09-10T04:03:15.585Z,100797.95
2018-09-10T04:05:43.979Z,100803.81
2018-09-10T04:08:10.911Z,100806.67
2018-09-10T04:10:37.868Z,100796.16
2018-09-10T04:13:04.822Z,100804.80
2018-09-10T04:15:31.825Z,100807.16
2018-09-10T04:17:58.711Z,100806.96
2018-09-10T04:20:25.683Z,100814.30
2018-09-10T04:22:52.627Z,100805.95
2018-09-10T04:25:19.574Z,100810.44
2018-09-10T04:27:46.575Z,100806.42
2018-09-10T04:30:15.068Z,100803.92
2018-09-10T04:32:42.003Z,100811.89
2018-09-10T04:35:09.564Z,100811.59
2018-09-10T04:37:36.971Z,100807.98
2018-09-10T04:40:04.191Z,100824.49
2018-09-10T04:42:31.072Z,100825.31
2018-09-10T04:44:57.984Z,100829.94
2018-09-10T04:47:25.023Z,100818.03
2018-09-10T04:49:52.013Z,100818.41
2018-09-10T04:52:18.964Z,100812.56
2018-09-10T04:54:45.875Z,100813.81
2018-09-10T04:57:12.799Z,100815.12
2018-09-10T04:59:39.775Z,100827.05
2018-09-10T05:02:06.723Z,100841.89
2018-09-10T05:04:33.728Z,100841.23
2018-09-10T05:07:00.632Z,100842.90
2018-09-10T05:09:27.591Z,100843.87
2018-09-10T05:11:54.536Z,100840.52
2018-09-10T05:14:22.532Z,100848.73
2018-09-10T05:16:50.535Z,100860.23
2018-09-10T05:19:17.523Z,100861.19
2018-09-10T05:21:44.437Z,100864.03
2018-09-10T05:24:11.384Z,100856.20
2018-09-10T05:26:38.345Z,100854.48
2018-09-10T05:29:05.300Z,100859.70
2018-09-10T05:31:32.259Z,100860.51
2018-09-10T05:33:59.252Z,100857.06
2018-09-10T05:36:26.164Z,100862.86
2018-09-10T05:38:53.162Z,100864.03
2018-09-10T05:41:20.084Z,100860.87
2018-09-10T05:43:47.047Z,100864.42
2018-09-10T05:46:14.050Z,100871.81
2018-09-10T05:48:41.983Z,100876.41
2018-09-10T05:51:08.943Z,100878.77
2018-09-10T05:53:35.900Z,100875.58
2018-09-10T05:56:02.844Z,100884.81
2018-09-10T05:58:29.807Z,100881.41
2018-09-10T06:00:56.776Z,100884.45
2018-09-10T06:03:23.736Z,100891.63
2018-09-10T06:05:50.679Z,100898.55
2018-09-10T06:08:17.607Z,100893.83
2018-09-10T06:10:44.708Z,100895.58
2018-09-10T06:13:11.692Z,100902.17
2018-09-10T06:15:38.619Z,100897.19
2018-09-10T06:18:05.755Z,100904.30
2018-09-10T06:20:33.506Z,100900.87
2018-09-10T06:23:02.623Z,100895.58
2018-09-10T06:25:30.138Z,100892.92
2018-09-10T06:27:58.143Z,100898.82
2018-09-10T06:30:25.141Z,100892.41
2018-09-10T06:32:52.052Z,100895.58
2018-09-10T06:35:19.179Z,100905.81
2018-09-10T06:37:46.152Z,100907.02
2018-09-10T06:40:13.112Z,100901.11
2018-09-10T06:42:40.071Z,100899.02
2018-09-10T06:45:07.671Z,100891.92
2018-09-10T06:47:34.616Z,100897.52
2018-09-10T06:50:01.593Z,100897.69
2018-09-10T06:52:28.512Z,100905.59
2018-09-10T06:54:55.473Z,100897.83
2018-09-10T06:57:23.486Z,100900.45
2018-09-10T06:59:50.468Z,100899.46
2018-09-10T07:02:17.332Z,100895.09
2018-09-10T07:04:44.295Z,100891.70
2018-09-10T07:07:11.260Z,100891.72
2018-09-10T07:09:38.239Z,100900.63
2018-09-10T07:12:05.254Z,100904.84
2018-09-10T07:14:32.155Z,100895.94
2018-09-10T07:16:59.107Z,100895.00
2018-09-10T07:19:26.078Z,100900.41
2018-09-10T07:21:53.037Z,100901.72
2018-09-10T07:24:19.955Z,100905.45
2018-09-10T07:26:46.990Z,100902.34
2018-09-10T07:29:13.859Z,100911.13
2018-09-10T07:31:40.885Z,100910.46
2018-09-10T07:34:07.822Z,100920.50
2018-09-10T07:36:34.772Z,100921.48
2018-09-10T07:39:01.729Z,100919.16
2018-09-10T07:41:28.687Z,100915.41
2018-09-10T07:43:55.726Z,100925.58
2018-09-10T07:46:22.607Z,100931.20
2018-09-10T07:48:49.603Z,100932.93
2018-09-10T07:51:17.435Z,100929.83
2018-09-10T07:53:44.364Z,100927.45
2018-09-10T07:56:11.231Z,100929.81
2018-09-10T07:58:38.212Z,100927.88
2018-09-10T08:01:05.236Z,100929.09
2018-09-10T08:03:32.267Z,100924.09
2018-09-10T08:05:59.143Z,100926.20
2018-09-10T08:08:26.135Z,100932.59
2018-09-10T08:10:53.095Z,100933.80
2018-09-10T08:13:20.070Z,100943.21
2018-09-10T08:15:47.024Z,100940.66
2018-09-10T08:18:13.976Z,100937.36
2018-09-10T08:20:40.895Z,100940.45
2018-09-10T08:23:07.879Z,100930.84
2018-09-10T08:25:34.841Z,100929.35
2018-09-10T08:28:01.841Z,100928.91
2018-09-10T08:30:28.773Z,100919.77
2018-09-10T08:32:56.728Z,100919.77
2018-09-10T08:35:23.688Z,100928.84
2018-09-10T08:37:50.550Z,100923.12
2018-09-10T08:40:17.503Z,100925.72
2018-09-10T08:42:44.508Z,100926.50
2018-09-10T08:45:11.428Z,100926.84
2018-09-10T08:47:38.380Z,100921.33
2018-09-10T08:50:06.243Z,100919.17
2018-09-10T08:52:33.098Z,100925.61
2018-09-10T08:55:00.228Z,100925.45
2018-09-10T08:57:27.747Z,100927.00
2018-09-10T08:59:54.849Z,100922.80
2018-09-10T09:02:21.898Z,100921.87
2018-09-10T09:04:48.804Z,100921.98
2018-09-10T09:07:15.780Z,100924.83
2018-09-10T09:09:42.741Z,100924.54
2018-09-10T09:12:09.747Z,100925.66
2018-09-10T09:14:36.648Z,100928.08
2018-09-10T09:17:03.635Z,100923.15
2018-09-10T09:19:30.543Z,100936.84
2018-09-10T09:21:57.538Z,100931.11
2018-09-10T09:24:24.487Z,100927.00
2018-09-10T09:26:51.415Z,100920.55
2018-09-10T09:29:18.396Z,100919.00
2018-09-10T09:31:45.372Z,100918.30
2018-09-10T09:34:12.316Z,100928.11
2018-09-10T09:36:45.007Z,100935.77
2018-09-10T09:39:17.731Z,100927.98
2018-09-10T09:41:50.371Z,100929.44
2018-09-10T09:44:22.963Z,100923.94
2018-09-10T09:46:49.939Z,100925.63
2018-09-10T09:49:16.948Z,100924.58
2018-09-10T09:51:43.860Z,100921.16
2018-09-10T09:54:11.143Z,100917.31
2018-09-10T09:56:38.154Z,100911.05
2018-09-10T09:59:05.032Z,100910.79
2018-09-10T10:01:37.808Z,100906.25
2018-09-10T10:04:07.769Z,100897.55
2018-09-10T10:06:35.379Z,100898.57
2018-09-10T10:09:02.331Z,100899.01
2018-09-10T10:11:29.227Z,100902.50
2018-09-10T10:13:56.202Z,100890.34
2018-09-10T10:16:23.234Z,100895.09
2018-09-10T10:18:50.124Z,100906.42
2018-09-10T10:21:17.082Z,100897.67
2018-09-10T10:23:44.083Z,100892.13
2018-09-10T10:26:11.027Z,100886.64
2018-09-10T10:28:38.005Z,100884.94
2018-09-10T10:31:05.134Z,100887.31
2018-09-10T10:33:32.069Z,100880.62
2018-09-10T10:35:59.022Z,100869.92
2018-09-10T10:38:26.003Z,100876.68
2018-09-10T10:40:52.948Z,100876.14
2018-09-10T10:43:19.829Z,100878.34
2018-09-10T10:45:46.736Z,100877.20
2018-09-10T10:48:13.711Z,100877.16
2018-09-10T10:50:40.706Z,100878.81
2018-09-10T10:53:07.655Z,100868.94
2018-09-10T10:55:34.583Z,100866.63
2018-09-10T10:58:01.537Z,100873.31
2018-09-10T11:00:28.512Z,100865.89
2018-09-10T11:02:55.470Z,100863.13
2018-09-10T11:05:22.471Z,100866.66
2018-09-10T11:07:49.472Z,100871.65
2018-09-10T11:10:16.440Z,100863.75
2018-09-10T11:12:43.381Z,100868.38
2018-09-10T11:15:10.346Z,100864.57
2018-09-10T11:17:37.281Z,100863.03
2018-09-10T11:20:04.716Z,100860.29
2018-09-10T11:22:31.645Z,100847.28
2018-09-10T11:24:58.581Z,100850.77
2018-09-10T11:27:25.540Z,100846.04
2018-09-10T11:29:52.540Z,100850.06
2018-09-10T11:32:19.455Z,100848.75
2018-09-10T11:34:46.576Z,100848.01
2018-09-10T11:37:13.475Z,100844.50
2018-09-10T11:39:40.555Z,100847.98
2018-09-10T11:42:07.495Z,100842.46
2018-09-10T11:44:34.643Z,100832.91
2018-09-10T11:47:01.965Z,100830.77
2018-09-10T11:49:28.851Z,100825.41
2018-09-10T11:51:55.855Z,100837.25
2018-09-10T11:54:22.788Z,100827.83
2018-09-10T11:56:49.890Z,100821.42
2018-09-10T11:59:16.932Z,100819.14
2018-09-10T12:01:44.194Z,100824.82
2018-09-10T12:04:11.199Z,100813.47
2018-09-10T12:06:38.111Z,100808.42
2018-09-10T12:09:06.311Z,100812.71
2018-09-10T12:11:33.232Z,100809.06
2018-09-10T12:14:00.188Z,100799.34
2018-09-10T12:16:27.155Z,100801.16
2018-09-10T12:18:54.079Z,100797.80
2018-09-10T12:21:21.293Z,100789.28
2018-09-10T12:23:48.216Z,100778.50
2018-09-10T12:26:15.351Z,100780.73
2018-09-10T12:28:42.387Z,100777.92
2018-09-10T12:31:09.303Z,100771.95
2018-09-10T12:33:36.510Z,100774.09
2018-09-10T12:36:03.418Z,100764.16
2018-09-10T12:38:30.387Z,100767.22
2018-09-10T12:40:57.455Z,100756.59
2018-09-10T12:43:25.364Z,100755.44
2018-09-10T12:45:52.388Z,100751.91
2018-09-10T12:48:19.327Z,100754.58
2018-09-10T12:50:46.260Z,100746.39
2018-09-10T12:53:13.247Z,100757.47
2018-09-10T12:55:40.395Z,100762.78
2018-09-10T12:58:07.391Z,100749.63
2018-09-10T13:00:34.326Z,100757.91
2018-09-10T13:03:01.383Z,100758.84
2018-09-10T13:05:28.355Z,100753.84
2018-09-10T13:07:55.409Z,100760.66
2018-09-10T13:10:22.607Z,100753.45
2018-09-10T13:12:49.541Z,100748.95
2018-09-10T13:15:16.518Z,100744.64
2018-09-10T13:17:43.443Z,100743.98
2018-09-10T13:20:10.419Z,100746.84
2018-09-10T13:22:37.351Z,100745.20
2018-09-10T13:25:04.376Z,100745.59
2018-09-10T13:27:31.379Z,100744.97
2018-09-10T13:29:58.336Z,100734.16
2018-09-10T13:32:25.305Z,100736.75
2018-09-10T13:34:52.252Z,100731.09
2018-09-10T13:37:19.201Z,100731.08
2018-09-10T13:39:46.197Z,100725.22
2018-09-10T13:42:13.111Z,100713.48
2018-09-10T13:44:40.102Z,100723.02
2018-09-10T13:47:07.109Z,100717.72
2018-09-10T13:49:34.054Z,100710.89
2018-09-10T13:52:00.950Z,100717.86
2018-09-10T13:54:28.059Z,100725.30
2018-09-10T13:56:55.071Z,100723.23
2018-09-10T13:59:22.146Z,100722.53
2018-09-10T14:01:49.090Z,100725.33
2018-09-10T14:04:16.075Z,100717.51
2018-09-10T14:06:43.063Z,100719.17
2018-09-10T14:09:09.975Z,100713.94
2018-09-10T14:11:37.408Z,100715.36
2018-09-10T14:14:04.506Z,100721.68
2018-09-10T14:16:31.427Z,100710.60
2018-09-10T14:18:58.381Z,100709.51
2018-09-10T14:21:25.283Z,100713.31
2018-09-10T14:23:52.208Z,100704.59
2018-09-10T14:26:19.135Z,100695.48
2018-09-10T14:28:46.172Z,100689.80
2018-09-10T14:31:13.101Z,100689.08
2018-09-10T14:33:40.071Z,100686.53
2018-09-10T14:36:06.975Z,100684.78
2018-09-10T14:38:33.979Z,100691.04
2018-09-10T14:41:00.923Z,100685.02
2018-09-10T14:43:28.097Z,100678.14
2018-09-10T14:45:55.039Z,100680.83
2018-09-10T14:48:22.185Z,100672.44
2018-09-10T14:50:49.193Z,100686.91
2018-09-10T14:53:16.195Z,100675.45
2018-09-10T14:55:43.171Z,100671.34
2018-09-10T14:58:10.051Z,100673.38
2018-09-10T15:00:37.009Z,100682.73
2018-09-10T15:03:04.028Z,100683.02
2018-09-10T15:05:31.047Z,100684.20
2018-09-10T15:07:58.108Z,100684.91
2018-09-10T15:10:25.031Z,100688.46
2018-09-10T15:12:52.017Z,100689.36
2018-09-10T15:15:18.946Z,100693.30
2018-09-10T15:17:46.124Z,100690.19
2018-09-10T15:20:13.032Z,100685.91
2018-09-10T15:22:40.504Z,100690.34
2018-09-10T15:25:07.517Z,100685.42
2018-09-10T15:27:34.451Z,100688.73
2018-09-10T15:30:01.375Z,100694.67
2018-09-10T15:32:28.360Z,100693.46
2018-09-10T15:34:55.358Z,100696.19
2018-09-10T15:37:22.275Z,100692.15
2018-09-10T15:39:49.240Z,100686.52
2018-09-10T15:42:16.290Z,100682.52
2018-09-10T15:44:43.247Z,100682.98
2018-09-10T15:47:10.260Z,100687.92
2018-09-10T15:49:37.272Z,100689.86
2018-09-10T15:52:04.211Z,100684.06
2018-09-10T15:54:31.348Z,100682.98
2018-09-10T15:56:58.247Z,100680.84
2018-09-10T15:59:25.192Z,100693.45
2018-09-10T16:01:52.247Z,100694.71
2018-09-10T16:04:19.213Z,100691.24
2018-09-10T16:06:46.172Z,100694.14
2018-09-10T16:09:13.127Z,100695.19
2018-09-10T16:11:40.166Z,100693.02
2018-09-10T16:14:07.123Z,100692.71
2018-09-10T16:16:34.107Z,100697.34
2018-09-10T16:19:01.351Z,100689.05
2018-09-10T16:21:28.316Z,100689.58
2018-09-10T16:23:55.276Z,100694.05
2018-09-10T16:26:22.212Z,100698.52
2018-09-10T16:28:49.192Z,100696.17
2018-09-10T16:31:16.155Z,100695.84
2018-09-10T16:33:43.160Z,100690.36
2018-09-10T16:36:10.040Z,100683.59
2018-09-10T16:38:37.041Z,100693.50
2018-09-10T16:41:04.005Z,100683.67
2018-09-10T16:43:30.981Z,100694.48
2018-09-10T16:45:57.899Z,100696.07
2018-09-10T16:48:24.970Z,100699.55
2018-09-10T16:50:51.907Z,100703.16
2018-09-10T16:53:18.873Z,100697.84
2018-09-10T16:55:45.818Z,100695.86
2018-09-10T16:58:12.779Z,100705.50
2018-09-10T17:00:39.795Z,100708.22
2018-09-10T17:03:06.719Z,100707.45
2018-09-10T17:05:33.657Z,100717.70
2018-09-10T17:08:00.891Z,100732.41
2018-09-10T17:10:27.889Z,100730.50
2018-09-10T17:12:54.835Z,100733.36
2018-09-10T17:15:21.813Z,100744.91
2018-09-10T17:17:48.747Z,100745.73
2018-09-10T17:20:15.712Z,100742.89
2018-09-10T17:22:42.683Z,100753.84
2018-09-10T17:25:09.648Z,100752.47
2018-09-10T17:27:36.578Z,100751.65
2018-09-10T17:30:03.760Z,100748.08
2018-09-10T17:32:30.695Z,100745.64
2018-09-10T17:34:57.649Z,100747.42
2018-09-10T17:37:24.604Z,100751.63
2018-09-10T17:39:51.611Z,100752.63
2018-09-10T17:42:18.595Z,100754.64
2018-09-10T17:44:45.494Z,100748.13
2018-09-10T17:47:12.638Z,100749.37
2018-09-10T17:49:39.436Z,100750.20
2018-09-10T17:52:06.335Z,100748.16
2018-09-10T17:54:33.450Z,100756.50
2018-09-10T17:57:00.400Z,100757.27
2018-09-10T17:59:27.352Z,100753.28
2018-09-10T18:01:55.184Z,100757.91
2018-09-10T18:04:22.164Z,100757.22
2018-09-10T18:06:49.131Z,100761.34
2018-09-10T18:09:16.102Z,100760.91
2018-09-10T18:11:45.075Z,100762.66
2018-09-10T18:14:12.556Z,100763.02
2018-09-10T18:16:45.966Z,100774.11
2018-09-10T18:19:13.531Z,100770.55
2018-09-10T18:21:40.501Z,100770.41
2018-09-10T18:24:07.446Z,100775.36
2018-09-10T18:26:34.432Z,100777.73
2018-09-10T18:29:01.389Z,100790.64
2018-09-10T18:31:28.331Z,100785.03
2018-09-10T18:33:55.320Z,100789.23
2018-09-10T18:36:22.211Z,100785.26
2018-09-10T18:38:51.587Z,100790.58
2018-09-10T18:41:29.405Z,100791.55
2018-09-10T18:43:56.328Z,100792.42
2018-09-10T18:46:23.255Z,100796.18
2018-09-10T18:48:50.272Z,100807.27
2018-09-10T18:51:17.175Z,100808.05
2018-09-10T18:53:49.071Z,100811.97
2018-09-10T18:56:16.047Z,100811.59
2018-09-10T18:58:43.279Z,100821.33
2018-09-10T19:01:12.447Z,100820.84
2018-09-10T19:03:49.191Z,100822.17
2018-09-10T19:06:21.090Z,100819.41
2018-09-10T19:08:48.583Z,100819.70
2018-09-10T19:11:20.099Z,100824.70
2018-09-10T19:13:55.775Z,100823.37
2018-09-10T19:16:24.569Z,100828.08
2018-09-10T19:18:51.526Z,100826.52
2018-09-10T19:21:19.451Z,100833.14
2018-09-10T19:23:52.503Z,100841.27
2018-09-10T19:26:25.499Z,100840.27
2018-09-10T19:28:52.460Z,100845.11
2018-09-10T19:31:20.292Z,100845.45
2018-09-10T19:33:47.287Z,100846.23
2018-09-10T19:36:14.275Z,100849.67
2018-09-10T19:38:41.256Z,100856.39
2018-09-10T19:41:08.148Z,100866.33
2018-09-10T19:43:35.133Z,100861.84
2018-09-10T19:46:02.126Z,100861.41
2018-09-10T19:48:30.107Z,100865.91
2018-09-10T19:50:57.069Z,100859.80
2018-09-10T19:53:23.996Z,100861.55
2018-09-10T19:55:50.996Z,100864.00
2018-09-10T19:58:17.940Z,100867.27
2018-09-10T20:00:44.843Z,100865.75
2018-09-10T20:03:11.782Z,100871.64
2018-09-10T20:05:38.756Z,100880.02
2018-09-10T20:08:05.741Z,100875.50
2018-09-10T20:10:32.744Z,100884.25
2018-09-10T20:12:59.733Z,100883.94
2018-09-10T20:15:29.855Z,100897.38
2018-09-10T20:17:56.832Z,100896.59
2018-09-10T20:20:23.805Z,100900.50
2018-09-10T20:22:52.785Z,100897.94
2018-09-10T20:25:25.991Z,100894.32
2018-09-10T20:27:52.951Z,100893.04
2018-09-10T20:30:23.720Z,100899.38
2018-09-10T20:32:50.656Z,100903.86
2018-09-10T20:37:56.659Z,100911.97
2018-09-10T20:40:23.619Z,100914.25
2018-09-10T20:42:58.361Z,100920.47
2018-09-10T20:45:28.179Z,100922.70
2018-09-10T20:47:55.095Z,100915.98
2018-09-10T20:50:23.127Z,100917.98
2018-09-10T20:52:51.131Z,100922.22
2018-09-10T20:55:18.706Z,100923.01
2018-09-10T20:57:45.603Z,100922.11
2018-09-10T21:00:12.589Z,100928.66
2018-09-10T21:02:39.551Z,100929.16
2018-09-10T21:05:06.500Z,100926.75
2018-09-10T21:07:33.489Z,100927.50
2018-09-10T21:10:00.424Z,100932.11
2018-09-10T21:12:27.393Z,100925.41
2018-09-10T21:14:54.323Z,100926.23
2018-09-10T21:17:21.298Z,100926.50
2018-09-10T21:19:49.139Z,100929.13
2018-09-10T21:22:16.119Z,100934.75
2018-09-10T21:24:43.088Z,100936.08
2018-09-10T21:27:12.111Z,100931.88
2018-09-10T21:29:43.660Z,100931.25
2018-09-10T21:32:10.683Z,100929.53
2018-09-10T21:34:39.715Z,100936.06
2018-09-10T21:37:07.187Z,100934.91
2018-09-10T21:39:34.138Z,100934.73
2018-09-10T21:42:01.314Z,100931.19
2018-09-10T21:44:28.255Z,100934.91
2018-09-10T21:46:55.236Z,100936.62
2018-09-10T21:49:22.171Z,100935.91
2018-09-10T21:51:50.196Z,100938.96
2018-09-10T21:54:17.144Z,100940.01
2018-09-10T21:57:00.780Z,100935.33
2018-09-10T21:59:28.779Z,100934.81
2018-09-10T22:01:56.755Z,100932.65
2018-09-10T22:04:25.198Z,100931.02
2018-09-10T22:06:55.177Z,100931.72
2018-09-10T22:09:22.107Z,100931.58
2018-09-10T22:11:54.715Z,100933.05
2018-09-10T22:14:21.679Z,100929.58
2018-09-10T22:16:50.616Z,100926.00
2018-09-10T22:19:22.256Z,100927.12
2018-09-10T22:21:49.183Z,100924.36
2018-09-10T22:24:16.152Z,100917.88
2018-09-10T22:26:45.160Z,100922.84
2018-09-10T22:29:12.099Z,100925.48
2018-09-10T22:31:39.063Z,100926.55
2018-09-10T22:34:07.083Z,100926.35
2018-09-10T22:36:34.855Z,100930.09
2018-09-10T22:39:01.851Z,100930.20
2018-09-10T22:41:28.834Z,100928.95
2018-09-10T22:43:55.799Z,100930.59
2018-09-10T22:46:22.779Z,100928.19
2018-09-10T22:48:49.687Z,100925.43
2018-09-10T22:51:18.083Z,100929.89
2018-09-10T22:53:49.800Z,100937.12
2018-09-10T22:56:16.703Z,100934.92
2018-09-10T22:58:43.703Z,100936.98
2018-09-10T23:01:10.654Z,100935.97
2018-09-10T23:03:37.611Z,100934.47
2018-09-10T23:06:04.593Z,100940.50
2018-09-10T23:08:32.506Z,100935.44
2018-09-10T23:11:02.382Z,100949.73
2018-09-10T23:13:30.271Z,100955.61
2018-09-10T23:15:57.224Z,100955.44
2018-09-10T23:18:31.062Z,100957.45
2018-09-10T23:20:58.020Z,100956.05
2018-09-10T23:23:24.919Z,100953.16
2018-09-10T23:25:57.431Z,100952.89
2018-09-10T23:28:24.363Z,100957.24
2018-09-10T23:30:53.391Z,100959.13
2018-09-10T23:33:20.328Z,100962.22
2018-09-10T23:35:47.330Z,100955.29
2018-09-10T23:38:17.539Z,100960.09
2018-09-10T23:40:44.474Z,100960.16
2018-09-10T23:43:11.441Z,100967.41
2018-09-10T23:45:38.438Z,100959.55
2018-09-10T23:48:05.606Z,100956.22
2018-09-10T23:50:32.627Z,100958.75
2018-09-10T23:53:02.595Z,100961.63
2018-09-10T23:55:29.515Z,100964.39
2018-09-10T23:57:56.455Z,100975.79
